首页
METAR-TAF:

METAR-TAF

机场 :

新山一國際機場

胡志明, 越南

纬度: 10-49N, 经度: 106-40E, 海拔: 19米

当前天气观测

该预报发布于16分钟前的17:00 UTC
风速1节,风向多变
温度 25°C
湿度 94%
气压 1011 hPa
能見度: 6000
少量云层高于1700英尺
少量云层高于2000英尺, 塔状积云.
散云层高于5000英尺
小阵雨

METAR: VVTS 161700Z VRB01KT 6000 -SHRA FEW017 FEW020TCU SCT050 25/24 Q1011 TEMPO TL1710 5000 SHRA RMK TCU OVER RWY

时间: 00:16 (17:16 UTC)

预报

该预报发布于6小时和16分钟前的11:00 UTC
预报有效从16日的 12点(UTC)到 17日的 18点(UTC)
风速6节,风向南转南东
能见度10公里或以上
散云层高于1700英尺
成为
从 16日的 21点(UTC)到 16日的 23点(UTC)
风速2节,风向多变
能見度: 3000
轻雾
成为
从 17日的 00点(UTC)到 17日的 02点(UTC)
风速10节,风向东转东南
能见度10公里或以上

TAF: VVTS 161100Z 1612/1718 15006KT 9999 SCT017 BECMG 1621/1623 VRB02KT 3000 BR BECMG 1700/1702 12010KT 9999 NSW

超过4000个机场的气象观测和天气预报(METAR&TAF报告)。

可查询的气象台以黄色和红色小点在地图上表示。

将鼠标移到小点上方,可查看气象台名称。

然后点击查看天气观测和预报。

如需切换地图:点击带黑十字的绿色按钮放大地图;点击带横线的绿色按钮缩小地图;或者点击绿色箭头查看邻近地区的地图。


METAR-TAF: